»·PEaware :: N566 49X-L52

N566 :: 49X-L52

FLIGHT INFORMATION

Flight Status: Arrived
Operator: Privately registered:
United States
More flights under this callsign
Pilot: Anders S. (12537)
Aircraft: PILATUS PC-12 EAGLE
(PC12)
More flights by this aircraft type
Origin: 49X Chemehuevi Valley
United States
Destination: L52 Oceano Co
United States
More flights between these airports :: More routes between these airports
Route: EED J6 PMD V137 GMN FLW
File this flight plan on PilotEdge
Remarks:
Altitude:
(Current/Filed)
26,000ft
Speed:
(Current/Filed)
230kts
Departed: 13-Jun-19 12:58 PM
Arrived: 13-Jun-19 02:26 PM
Distance/Time
Traveled:
307nm/1:28
Distance/Time
To Go:
Arrived

Flight Plot

Page will automatically refresh every two minutes.

Flight plan parsing failed; only flown route is shown


Map Options




Map Legend


Flown Route
Filed Route
Departure Airport
Arrival Airport
Navaid (VOR, NDB)
Fix

Horizontal Profiles

Position Reports

Time Latitude Longitude Heading Altitude Ground
Speed
13-Jun-19 12:45 34.527376 -114.430217 173 634ft 0kts
13-Jun-19 12:46 34.527376 -114.430217 173 634ft 0kts
13-Jun-19 12:48 34.527376 -114.430217 173 634ft 0kts
13-Jun-19 12:48 34.527376 -114.430217 173 634ft 0kts
13-Jun-19 12:49 34.527376 -114.430217 173 634ft 0kts
13-Jun-19 12:50 34.527376 -114.430217 173 634ft 0kts
13-Jun-19 12:51 34.527376 -114.430217 173 634ft 0kts
13-Jun-19 12:52 34.527370 -114.430216 171 634ft 0kts
13-Jun-19 12:53 34.527745 -114.430281 171 634ft 1kts
13-Jun-19 12:54 34.527553 -114.430343 265 634ft 0kts
13-Jun-19 12:55 34.528039 -114.431096 357 634ft 13kts
13-Jun-19 12:56 34.534211 -114.431842 220 634ft 2kts
13-Jun-19 12:57 34.524130 -114.431131 178 941ft 108kts
13-Jun-19 12:58 34.506912 -114.398533 57 2693ft 180kts
13-Jun-19 12:59 34.557499 -114.401165 337 4775ft 204kts
13-Jun-19 13:00 34.611251 -114.426502 338 6801ft 207kts
13-Jun-19 13:01 34.667408 -114.448720 342 8662ft 218kts
13-Jun-19 13:02 34.727255 -114.466449 347 10467ft 224kts
13-Jun-19 13:03 34.770320 -114.508715 275 12286ft 217kts
13-Jun-19 13:04 34.773179 -114.582979 268 14094ft 222kts
13-Jun-19 13:05 34.774324 -114.657872 268 15892ft 219kts
13-Jun-19 13:06 34.775532 -114.727799 268 17526ft 215kts
13-Jun-19 13:07 34.776604 -114.800618 268 19023ft 215kts
13-Jun-19 13:08 34.777707 -114.872676 268 20516ft 211kts
13-Jun-19 13:09 34.778769 -114.936972 268 21765ft 210kts
13-Jun-19 13:10 34.780217 -115.008069 268 22763ft 214kts
13-Jun-19 13:11 34.781357 -115.080496 267 23763ft 213kts
13-Jun-19 13:12 34.781791 -115.152326 267 24762ft 210kts
13-Jun-19 13:13 34.782176 -115.216325 267 25429ft 215kts
13-Jun-19 13:14 34.783490 -115.290295 268 25796ft 228kts
13-Jun-19 13:15 34.784875 -115.369404 268 25815ft 237kts
13-Jun-19 13:16 34.786222 -115.449978 268 25832ft 239kts
13-Jun-19 13:17 34.787555 -115.530874 268 25842ft 240kts
13-Jun-19 13:18 34.788536 -115.612067 269 25863ft 239kts
13-Jun-19 13:19 34.789559 -115.693023 268 25867ft 239kts
13-Jun-19 13:20 34.790216 -115.774068 268 25868ft 240kts
13-Jun-19 13:21 34.790865 -115.853837 268 25893ft 239kts
13-Jun-19 13:22 34.791612 -115.934346 268 25891ft 240kts
13-Jun-19 13:23 34.792328 -116.015344 269 25890ft 240kts
13-Jun-19 13:24 34.793163 -116.096361 268 25897ft 240kts
13-Jun-19 13:25 34.793981 -116.177437 268 25896ft 240kts
13-Jun-19 13:26 34.794739 -116.258415 267 25896ft 240kts
13-Jun-19 13:27 34.795723 -116.340205 267 25896ft 242kts
13-Jun-19 13:28 34.796590 -116.421912 267 25899ft 242kts
13-Jun-19 13:29 34.794275 -116.503299 260 25896ft 240kts
13-Jun-19 13:30 34.785598 -116.584167 259 25890ft 240kts
13-Jun-19 13:31 34.776788 -116.664594 259 25896ft 240kts
13-Jun-19 13:32 34.767947 -116.745285 259 25891ft 240kts
13-Jun-19 13:33 34.759412 -116.825503 260 25891ft 240kts
13-Jun-19 13:34 34.751513 -116.905567 260 25899ft 240kts
13-Jun-19 13:35 34.743429 -116.986918 260 25918ft 240kts
13-Jun-19 13:36 34.735586 -117.067001 260 25934ft 240kts
13-Jun-19 13:37 34.727656 -117.147878 260 25941ft 240kts
13-Jun-19 13:38 34.719609 -117.228682 259 25951ft 240kts
13-Jun-19 13:39 34.711644 -117.308997 260 25957ft 240kts
13-Jun-19 13:40 34.703744 -117.389510 259 25958ft 240kts
13-Jun-19 13:41 34.694437 -117.469002 258 25947ft 239kts
13-Jun-19 13:42 34.685320 -117.549164 259 25950ft 239kts
13-Jun-19 13:43 34.677018 -117.629297 259 25950ft 239kts
13-Jun-19 13:44 34.668446 -117.709762 258 25932ft 239kts
13-Jun-19 13:45 34.659468 -117.789602 258 25936ft 238kts
13-Jun-19 13:46 34.651117 -117.869536 259 25941ft 238kts
13-Jun-19 13:47 34.644964 -117.929854 259 25941ft 238kts
13-Jun-19 13:48 34.636879 -118.009571 258 25942ft 238kts
13-Jun-19 13:49 34.634101 -118.090030 277 25954ft 244kts
13-Jun-19 13:50 34.653991 -118.169212 282 25951ft 246kts
13-Jun-19 13:51 34.671877 -118.249154 279 25950ft 245kts
13-Jun-19 13:52 34.689758 -118.329993 279 25777ft 250kts
13-Jun-19 13:53 34.707018 -118.412100 279 25300ft 257kts
13-Jun-19 13:54 34.724841 -118.496420 279 24798ft 258kts
13-Jun-19 13:55 34.742608 -118.575903 280 24324ft 258kts
13-Jun-19 13:56 34.760494 -118.659592 278 24106ft 252kts
13-Jun-19 13:57 34.777623 -118.741582 279 24121ft 250kts
13-Jun-19 13:58 34.795607 -118.823109 279 24116ft 249kts
13-Jun-19 13:59 34.815621 -118.904316 283 24105ft 251kts
13-Jun-19 14:00 34.839389 -118.985207 284 23666ft 256kts
13-Jun-19 14:01 34.863406 -119.066756 284 22691ft 254kts
13-Jun-19 14:02 34.886512 -119.146671 283 21681ft 251kts
13-Jun-19 14:03 34.909142 -119.226584 285 20396ft 248kts
13-Jun-19 14:04 34.932011 -119.304929 285 18904ft 245kts
13-Jun-19 14:05 34.954716 -119.383213 284 17381ft 240kts
13-Jun-19 14:06 34.976122 -119.458559 284 15890ft 235kts
13-Jun-19 14:07 34.997254 -119.533341 285 14381ft 230kts
13-Jun-19 14:08 35.017870 -119.604977 285 12920ft 229kts
13-Jun-19 14:09 35.038762 -119.677787 285 11415ft 225kts
13-Jun-19 14:10 35.059415 -119.749284 285 9907ft 221kts
13-Jun-19 14:11 35.079751 -119.819342 286 9028ft 220kts
13-Jun-19 14:12 35.096448 -119.891992 269 8902ft 223kts
13-Jun-19 14:13 35.097113 -119.966873 266 8398ft 219kts
13-Jun-19 14:14 35.097231 -120.040968 266 7893ft 216kts
13-Jun-19 14:15 35.097306 -120.113990 267 7389ft 214kts
13-Jun-19 14:16 35.097903 -120.186094 268 6938ft 211kts
13-Jun-19 14:17 35.098625 -120.250140 268 6484ft 209kts
13-Jun-19 14:18 35.099390 -120.320863 268 5756ft 207kts
13-Jun-19 14:19 35.091541 -120.383361 249 4723ft 202kts
13-Jun-19 14:20 35.075869 -120.448364 253 3417ft 195kts
13-Jun-19 14:21 35.066582 -120.508396 259 2376ft 163kts
13-Jun-19 14:22 35.066033 -120.558736 291 1278ft 136kts
13-Jun-19 14:23 35.084895 -120.593566 303 1155ft 115kts
13-Jun-19 14:24 35.099807 -120.619375 303 29ft 58kts
13-Jun-19 14:25 35.102143 -120.622319 330 17ft 4kts
13-Jun-19 14:26 35.102727 -120.623025 39 17ft 0kts

Navigation Log

Ident Type
Flight plan parsing failed, navigation log unavailable